Time;durP1;ratioP1;P1;durP2;ratioP2;P2;SDS_P1;SDS_P2;PMS_P1;PMS_P2;Temp;Humidity;BMP_temperature;BMP_pressure;BME280_temperature;BME280_humidity;BME280_pressure;Samples;Min_cycle;Max_cycle;Signal;HPM_P1;HPM_P2
2021/07/29 00:00:19;;;;;;;17.10;5.30;;;;;;;25.55;100.00;101286.78;5004510;28;20174;-78
2021/07/29 00:02:44;;;;;;;9.60;4.83;;;;;;;25.47;100.00;101285.03;5010797;28;20253;-72
2021/07/29 00:05:10;;;;;;;14.47;5.30;;;;;;;25.48;100.00;101267.00;5011759;28;20178;-71
2021/07/29 00:07:35;;;;;;;23.13;11.00;;;;;;;25.45;100.00;101258.25;5008628;28;20194;-72
2021/07/29 00:10:03;;;;;;;12.27;5.53;;;;;;;25.51;100.00;101251.31;4997773;28;20225;-78
2021/07/29 00:12:28;;;;;;;9.37;5.30;;;;;;;25.57;100.00;101245.19;5006776;28;20174;-71
2021/07/29 00:14:53;;;;;;;7.60;5.77;;;;;;;25.59;100.00;101243.13;5014030;28;20757;-71
2021/07/29 00:20:04;;;;;;;7.87;4.73;;;;;;;25.59;100.00;101229.66;5003508;28;20228;-72
2021/07/29 00:22:29;;;;;;;17.93;5.00;;;;;;;25.62;100.00;101234.69;5012198;28;20413;-73
2021/07/29 00:24:54;;;;;;;9.00;4.60;;;;;;;25.60;100.00;101239.41;5013983;28;20428;-83
2021/07/29 00:27:20;;;;;;;10.77;4.80;;;;;;;25.61;100.00;101238.38;5010827;28;20202;-84
2021/07/29 00:29:45;;;;;;;12.23;5.00;;;;;;;25.53;100.00;101222.34;5013885;28;20172;-70
2021/07/29 00:32:11;;;;;;;7.70;4.80;;;;;;;25.55;100.00;101217.63;5014898;28;20252;-70
2021/07/29 00:34:36;;;;;;;11.50;5.13;;;;;;;25.54;100.00;101207.84;5013917;28;20179;-71
2021/07/29 00:37:02;;;;;;;11.30;5.10;;;;;;;25.55;100.00;101206.03;5004582;28;20276;-70
2021/07/29 00:39:27;;;;;;;13.40;4.90;;;;;;;25.55;100.00;101211.41;5013337;28;20178;-70
2021/07/29 00:41:53;;;;;;;8.00;5.13;;;;;;;25.57;100.00;101185.97;5015803;28;20198;-71
2021/07/29 00:44:18;;;;;;;12.13;5.13;;;;;;;25.68;100.00;101187.31;5013112;28;20177;-81
2021/07/29 00:46:44;;;;;;;11.90;5.17;;;;;;;25.64;100.00;101181.47;5013543;28;20233;-72
2021/07/29 00:49:10;;;;;;;8.57;5.80;;;;;;;25.70;100.00;101174.50;5015536;28;20175;-71
2021/07/29 00:51:35;;;;;;;10.43;6.00;;;;;;;25.66;100.00;101184.81;5009495;28;20175;-71
2021/07/29 00:54:02;;;;;;;12.53;5.57;;;;;;;25.67;100.00;101174.88;5013563;28;20209;-72
2021/07/29 00:56:28;;;;;;;16.50;5.67;;;;;;;25.70;100.00;101174.50;5013538;28;20174;-72
2021/07/29 00:58:54;;;;;;;13.23;6.10;;;;;;;25.78;100.00;101170.91;5013723;28;20428;-72
2021/07/29 01:01:19;;;;;;;11.00;5.53;;;;;;;25.78;100.00;101160.13;5013379;28;20867;-71
2021/07/29 01:03:45;;;;;;;13.10;5.90;;;;;;;25.87;100.00;101162.50;5022135;28;20192;-72
2021/07/29 01:06:10;;;;;;;14.70;5.40;;;;;;;25.93;100.00;101152.81;5002753;28;20190;-71
2021/07/29 01:09:08;;;;;;;13.20;5.27;;;;;;;26.06;100.00;101142.13;5013438;28;20249;-70
2021/07/29 01:11:34;;;;;;;14.70;4.97;;;;;;;26.16;100.00;101129.19;5006002;28;20177;-69
2021/07/29 01:13:59;;;;;;;21.07;6.93;;;;;;;26.24;100.00;101123.66;5013354;28;20405;-72
2021/07/29 01:16:25;;;;;;;15.60;6.37;;;;;;;26.37;100.00;101119.38;5001324;28;20879;-71
2021/07/29 01:18:50;;;;;;;12.90;6.70;;;;;;;26.41;100.00;101131.47;5001381;28;20167;-71
2021/07/29 01:21:15;;;;;;;16.83;5.30;;;;;;;26.47;100.00;101111.81;5012104;28;20617;-71
2021/07/29 01:23:41;;;;;;;13.27;6.53;;;;;;;26.49;100.00;101098.97;5002850;28;20174;-71
2021/07/29 01:26:06;;;;;;;15.90;5.53;;;;;;;26.49;100.00;101109.75;5008978;28;20277;-71
2021/07/29 01:28:32;;;;;;;12.10;5.17;;;;;;;26.59;100.00;101137.19;5012957;28;20170;-70
2021/07/29 01:30:57;;;;;;;12.13;5.00;;;;;;;26.65;100.00;101131.00;5012081;28;20171;-72
2021/07/29 01:33:23;;;;;;;13.60;5.40;;;;;;;26.58;100.00;101113.13;5010739;28;20174;-72
2021/07/29 01:35:48;;;;;;;12.00;5.30;;;;;;;26.54;100.00;101108.13;5016671;28;20228;-71
2021/07/29 01:38:14;;;;;;;11.07;4.67;;;;;;;26.53;100.00;101087.59;5012551;28;20209;-72
2021/07/29 01:40:39;;;;;;;9.37;4.77;;;;;;;26.53;100.00;101094.84;5012924;28;20213;-72
2021/07/29 01:43:04;;;;;;;12.13;5.73;;;;;;;26.64;100.00;101104.25;5011991;28;20170;-73
2021/07/29 01:45:31;;;;;;;16.50;5.30;;;;;;;26.58;100.00;101111.25;5011426;28;20591;-71
2021/07/29 01:47:56;;;;;;;12.70;5.07;;;;;;;26.50;100.00;101106.03;5010890;28;20534;-73
2021/07/29 01:50:22;;;;;;;12.27;4.80;;;;;;;26.54;100.00;101110.00;5003388;28;20997;-70
2021/07/29 01:52:48;;;;;;;11.40;5.70;;;;;;;26.61;100.00;101121.66;5012666;28;20177;-72
2021/07/29 01:55:14;;;;;;;12.00;5.00;;;;;;;26.54;100.00;101131.56;5015861;28;20421;-71
2021/07/29 01:57:39;;;;;;;9.93;4.70;;;;;;;26.53;100.00;101154.16;5012320;28;20654;-70
2021/07/29 02:00:06;;;;;;;13.53;5.50;;;;;;;26.60;100.00;101163.13;5011479;28;20177;-71
2021/07/29 02:02:32;;;;;;;14.53;6.07;;;;;;;26.52;100.00;101142.53;5012418;28;20182;-71
2021/07/29 02:04:57;;;;;;;10.30;5.20;;;;;;;26.62;100.00;101144.88;5011003;28;20516;-72
2021/07/29 02:07:23;;;;;;;16.40;5.53;;;;;;;26.57;100.00;101149.19;5004670;28;21326;-72
2021/07/29 02:09:48;;;;;;;10.27;4.93;;;;;;;26.64;100.00;101148.22;5012071;28;20175;-70
2021/07/29 02:12:14;;;;;;;15.03;5.97;;;;;;;26.58;100.00;101151.69;5010855;28;20177;-71
2021/07/29 02:14:39;;;;;;;9.80;5.37;;;;;;;26.52;100.00;101152.47;5011004;28;20593;-74
2021/07/29 02:17:05;;;;;;;18.07;5.47;;;;;;;26.47;100.00;101138.78;5011416;28;20266;-73
2021/07/29 02:19:32;;;;;;;17.43;7.50;;;;;;;26.57;100.00;101146.50;5012197;28;20223;-73
2021/07/29 02:21:58;;;;;;;8.10;4.40;;;;;;;26.57;100.00;101141.13;5011311;28;20166;-77
2021/07/29 02:24:23;;;;;;;14.90;6.10;;;;;;;26.53;100.00;101144.22;5008494;28;20840;-72
2021/07/29 02:26:49;;;;;;;9.23;4.40;;;;;;;26.49;100.00;101151.00;5011524;28;20445;-71
2021/07/29 02:29:14;;;;;;;11.50;5.17;;;;;;;26.43;100.00;101143.72;5009641;28;20257;-70
2021/07/29 02:31:40;;;;;;;13.70;5.60;;;;;;;26.43;100.00;101137.50;5010677;28;20185;-70
2021/07/29 02:34:05;;;;;;;9.83;4.23;;;;;;;26.40;100.00;101135.19;5010643;28;20190;-71
2021/07/29 02:36:31;;;;;;;10.57;4.73;;;;;;;26.31;100.00;101112.94;5011325;28;20213;-72
2021/07/29 02:38:56;;;;;;;8.67;5.10;;;;;;;26.25;100.00;101097.53;5005702;28;20189;-71
2021/07/29 02:41:22;;;;;;;9.30;4.97;;;;;;;26.32;100.00;101071.47;5009524;28;20194;-72
2021/07/29 02:43:47;;;;;;;11.47;4.80;;;;;;;26.19;100.00;101066.81;5007617;28;20185;-71
2021/07/29 02:46:13;;;;;;;9.60;4.83;;;;;;;26.09;100.00;101089.75;5011438;28;20190;-70
2021/07/29 02:48:39;;;;;;;9.77;5.30;;;;;;;25.97;100.00;101084.06;5006723;28;20258;-70
2021/07/29 02:51:04;;;;;;;10.93;5.50;;;;;;;25.92;100.00;101108.03;5011479;28;20171;-71
2021/07/29 02:53:33;;;;;;;11.20;5.87;;;;;;;25.85;100.00;101096.41;5009817;28;20679;-71
2021/07/29 02:55:59;;;;;;;13.53;4.83;;;;;;;25.78;100.00;101068.59;5007909;28;20173;-81
2021/07/29 02:58:25;;;;;;;12.77;5.53;;;;;;;25.66;100.00;101087.06;5011469;28;20827;-71
2021/07/29 03:00:52;;;;;;;14.83;6.00;;;;;;;25.60;100.00;101095.91;5011087;28;20419;-70
2021/07/29 03:03:17;;;;;;;9.20;4.60;;;;;;;25.54;100.00;101080.53;5011985;28;20500;-84
2021/07/29 03:05:43;;;;;;;8.00;5.00;;;;;;;25.59;100.00;101080.78;5011260;28;20417;-76
2021/07/29 03:08:09;;;;;;;10.97;5.97;;;;;;;25.69;100.00;101087.53;5008877;28;20177;-70
2021/07/29 03:10:34;;;;;;;19.33;6.00;;;;;;;25.70;100.00;101091.88;5009981;28;20173;-72
2021/07/29 03:13:01;;;;;;;9.10;4.60;;;;;;;25.66;100.00;101095.97;5011166;28;20173;-71
2021/07/29 03:15:30;;;;;;;9.90;6.47;;;;;;;25.80;100.00;101090.75;5011120;28;20170;-72
2021/07/29 03:17:56;;;;;;;9.03;5.23;;;;;;;25.78;100.00;101084.75;5011363;28;20766;-72
2021/07/29 03:20:21;;;;;;;14.93;5.60;;;;;;;25.70;100.00;101073.03;5011364;28;20911;-72
2021/07/29 03:22:47;;;;;;;14.03;5.50;;;;;;;25.75;100.00;101063.56;5002749;28;20260;-71
2021/07/29 03:25:12;;;;;;;8.17;5.57;;;;;;;25.76;100.00;101062.53;5008741;28;20597;-74
2021/07/29 03:27:38;;;;;;;9.57;5.27;;;;;;;25.76;100.00;101055.28;5011145;28;20285;-71
2021/07/29 03:30:04;;;;;;;9.90;5.13;;;;;;;25.78;100.00;101057.81;5010062;28;20174;-83
2021/07/29 03:32:29;;;;;;;16.67;5.90;;;;;;;25.85;100.00;101056.84;5010698;28;20182;-70
2021/07/29 03:34:55;;;;;;;13.07;5.80;;;;;;;25.96;100.00;101061.69;5008653;28;20428;-77
2021/07/29 03:37:20;;;;;;;16.90;5.83;;;;;;;26.06;100.00;101058.63;5002447;28;20324;-72
2021/07/29 03:39:46;;;;;;;11.53;5.40;;;;;;;25.99;100.00;101058.59;5005917;28;20566;-71
2021/07/29 03:42:11;;;;;;;15.30;6.40;;;;;;;26.05;100.00;101058.84;5010701;28;20220;-72
2021/07/29 03:44:37;;;;;;;16.63;5.23;;;;;;;25.95;100.00;101060.00;5010640;28;20177;-71
2021/07/29 03:47:02;;;;;;;12.27;5.90;;;;;;;26.00;100.00;101062.97;5013833;28;20236;-73
2021/07/29 03:49:28;;;;;;;12.47;5.70;;;;;;;26.00;100.00;101068.34;5004282;28;20168;-72
2021/07/29 03:51:53;;;;;;;19.13;7.67;;;;;;;26.03;100.00;101060.91;5013322;28;20265;-72
2021/07/29 03:54:19;;;;;;;18.70;6.73;;;;;;;26.18;100.00;101070.53;5009988;28;20193;-72
2021/07/29 03:56:44;;;;;;;10.97;6.70;;;;;;;26.20;100.00;101064.94;5014876;28;20257;-72
2021/07/29 03:59:10;;;;;;;11.30;6.13;;;;;;;26.22;100.00;101063.75;5014492;28;20280;-72
2021/07/29 04:01:35;;;;;;;13.23;5.60;;;;;;;26.29;100.00;101061.91;5002036;28;20173;-72
2021/07/29 04:04:00;;;;;;;13.23;6.30;;;;;;;26.26;100.00;101064.16;5014571;28;20175;-71
2021/07/29 04:06:26;;;;;;;14.03;5.57;;;;;;;26.16;100.00;101063.69;5011400;28;20724;-72
2021/07/29 04:08:51;;;;;;;8.77;5.40;;;;;;;26.12;100.00;101065.94;5007475;28;20616;-71
2021/07/29 04:11:17;;;;;;;16.77;6.50;;;;;;;26.12;100.00;101063.25;5013300;28;20621;-72
2021/07/29 04:13:42;;;;;;;10.73;6.20;;;;;;;26.23;100.00;101059.19;5021509;28;20173;-71
2021/07/29 04:16:08;;;;;;;10.37;6.13;;;;;;;26.33;100.00;101064.22;5011719;28;20257;-70
2021/07/29 04:18:35;;;;;;;14.67;5.70;;;;;;;26.41;100.00;101069.47;5005281;28;20206;-71
2021/07/29 04:21:00;;;;;;;14.60;7.37;;;;;;;26.39;100.00;101067.00;5015840;28;20840;-72
2021/07/29 04:23:26;;;;;;;13.90;6.20;;;;;;;26.49;100.00;101067.44;5002637;28;20416;-72
2021/07/29 04:25:52;;;;;;;12.87;6.73;;;;;;;26.47;100.00;101068.69;5014006;28;20165;-71
2021/07/29 04:28:17;;;;;;;12.50;6.13;;;;;;;26.56;100.00;101064.78;5016055;28;20420;-71
2021/07/29 04:30:43;;;;;;;12.93;6.47;;;;;;;26.60;100.00;101070.59;5011614;28;20188;-78
2021/07/29 04:33:09;;;;;;;12.37;6.20;;;;;;;26.55;100.00;101072.06;5015822;28;20174;-71
2021/07/29 04:35:37;;;;;;;11.40;6.17;;;;;;;26.62;100.00;101068.56;5014001;28;20214;-71
2021/07/29 04:38:02;;;;;;;16.37;6.17;;;;;;;26.62;100.00;101076.66;5012365;28;20507;-74
2021/07/29 04:40:28;;;;;;;18.53;7.13;;;;;;;26.63;100.00;101078.31;5013094;28;20451;-72
2021/07/29 04:42:53;;;;;;;10.77;5.50;;;;;;;26.59;100.00;101069.78;5013645;28;20159;-72
2021/07/29 04:45:19;;;;;;;12.77;7.20;;;;;;;26.57;100.00;101069.16;5012391;28;20166;-72
2021/07/29 04:47:44;;;;;;;11.33;6.63;;;;;;;26.60;100.00;101070.59;5015213;28;20190;-73
2021/07/29 04:50:10;;;;;;;11.77;6.97;;;;;;;26.72;100.00;101066.31;5019314;28;20166;-71
2021/07/29 04:52:35;;;;;;;14.57;5.80;;;;;;;26.81;100.00;101067.81;5026008;28;20150;-72
2021/07/29 04:55:01;;;;;;;11.20;5.90;;;;;;;26.83;100.00;101063.91;5013944;28;20167;-71
2021/07/29 04:57:26;;;;;;;11.00;6.07;;;;;;;26.82;100.00;101056.81;5000297;28;20264;-71
2021/07/29 04:59:51;;;;;;;12.40;5.77;;;;;;;26.83;100.00;101060.38;5012752;28;20162;-71
2021/07/29 05:02:17;;;;;;;10.90;5.37;;;;;;;26.78;100.00;101063.66;5012382;28;20181;-73
2021/07/29 05:04:43;;;;;;;15.83;6.30;;;;;;;26.83;100.00;101063.91;5025706;28;20173;-76
2021/07/29 05:07:12;;;;;;;13.80;5.80;;;;;;;26.90;100.00;101052.28;5014815;28;20600;-71
2021/07/29 05:09:38;;;;;;;17.23;5.83;;;;;;;26.92;100.00;101053.75;5012340;28;20616;-71
2021/07/29 05:12:03;;;;;;;14.63;5.57;;;;;;;26.95;100.00;101055.22;5002378;28;20472;-70
2021/07/29 05:14:29;;;;;;;11.87;6.10;;;;;;;26.99;100.00;101057.31;5000998;28;20189;-72
2021/07/29 05:16:59;;;;;;;10.83;5.27;;;;;;;27.10;100.00;101058.63;5011480;28;20417;-72
2021/07/29 05:19:25;;;;;;;13.93;6.20;;;;;;;27.20;100.00;101050.13;5004759;28;20171;-72
2021/07/29 05:21:50;;;;;;;11.47;5.37;;;;;;;27.33;100.00;101059.09;5012373;28;20432;-70
2021/07/29 05:24:16;;;;;;;14.67;6.03;;;;;;;27.48;100.00;101049.97;5012545;28;20186;-73
2021/07/29 05:26:42;;;;;;;16.30;5.63;;;;;;;27.46;100.00;101052.06;5011591;28;20548;-72
2021/07/29 05:29:08;;;;;;;15.90;5.97;;;;;;;27.59;100.00;101062.88;5003776;28;20175;-73
2021/07/29 05:31:33;;;;;;;19.43;6.73;;;;;;;27.64;100.00;101061.19;5009668;28;20432;-72
2021/07/29 05:33:59;;;;;;;10.60;4.67;;;;;;;27.59;100.00;101060.19;5012860;28;20174;-72
2021/07/29 05:36:24;;;;;;;16.87;5.70;;;;;;;27.58;100.00;101055.78;5010476;28;20217;-72
2021/07/29 05:38:50;;;;;;;15.80;5.37;;;;;;;27.59;100.00;101068.28;5020171;28;20178;-73
2021/07/29 05:41:15;;;;;;;11.90;4.77;;;;;;;27.75;100.00;101061.66;5017424;28;20609;-75
2021/07/29 05:43:41;;;;;;;20.90;6.53;;;;;;;27.90;100.00;101063.13;5017306;28;20650;-77
2021/07/29 05:46:07;;;;;;;13.53;5.63;;;;;;;28.02;100.00;101065.19;5007664;28;20284;-72
2021/07/29 05:48:33;;;;;;;12.33;5.97;;;;;;;28.03;100.00;101056.84;5019951;28;20166;-78
2021/07/29 05:51:00;;;;;;;11.33;5.50;;;;;;;28.08;100.00;101062.47;5013570;28;20445;-72
2021/07/29 05:53:26;;;;;;;23.33;7.80;;;;;;;28.16;100.00;101056.00;5014436;28;20176;-72
2021/07/29 05:55:54;;;;;;;16.57;7.17;;;;;;;28.22;100.00;101057.06;5013381;28;20413;-78
2021/07/29 05:58:20;;;;;;;10.10;7.33;;;;;;;28.30;100.00;101054.97;5010113;28;20546;-72
2021/07/29 06:00:46;;;;;;;11.00;6.13;;;;;;;28.40;100.00;101049.97;5008521;28;20892;-72
2021/07/29 06:03:11;;;;;;;25.10;7.63;;;;;;;28.53;100.00;101042.84;5015666;28;20444;-74
2021/07/29 06:05:37;;;;;;;9.13;5.23;;;;;;;28.59;100.00;101052.84;5008804;28;20175;-73
2021/07/29 06:08:02;;;;;;;9.00;5.67;;;;;;;28.57;100.00;101047.66;5011784;28;20194;-71
2021/07/29 06:10:28;;;;;;;11.80;5.43;;;;;;;28.56;100.00;101048.66;5011339;28;20174;-73
2021/07/29 06:12:53;;;;;;;12.50;6.17;;;;;;;28.62;100.00;101044.28;5011726;28;20540;-73
2021/07/29 06:15:19;;;;;;;12.40;5.97;;;;;;;28.64;100.00;101044.88;5011348;28;20257;-73
2021/07/29 06:17:49;;;;;;;14.50;6.17;;;;;;;28.69;100.00;101039.69;5011307;28;20189;-78
2021/07/29 06:20:14;;;;;;;14.70;6.13;;;;;;;28.84;100.00;101040.22;5000531;28;20224;-74
2021/07/29 06:22:40;;;;;;;13.80;6.30;;;;;;;28.92;100.00;101037.31;5012002;28;20409;-73
2021/07/29 06:25:08;;;;;;;15.90;6.03;;;;;;;29.02;100.00;101034.16;5009140;28;20166;-79
2021/07/29 06:27:36;;;;;;;9.87;5.50;;;;;;;29.16;100.00;101032.19;5011893;28;20210;-77
2021/07/29 06:30:01;;;;;;;11.40;5.23;;;;;;;29.28;100.00;101035.84;5011840;28;20505;-76
2021/07/29 06:32:27;;;;;;;11.53;6.37;;;;;;;29.27;100.00;101034.22;5009972;28;20572;-73
2021/07/29 06:34:53;;;;;;;14.47;6.33;;;;;;;29.36;100.00;101030.19;5009502;28;20577;-78
2021/07/29 06:37:18;;;;;;;12.93;6.77;;;;;;;29.46;100.00;101026.97;5011293;28;20453;-75
2021/07/29 06:39:44;;;;;;;12.00;5.93;;;;;;;29.62;100.00;101033.75;5010844;28;20610;-77
2021/07/29 06:42:09;;;;;;;12.83;5.83;;;;;;;29.67;100.00;101033.94;5010957;28;20241;-78
2021/07/29 06:44:35;;;;;;;8.50;5.60;;;;;;;29.64;100.00;101031.69;5043107;28;20182;-77
2021/07/29 06:47:00;;;;;;;13.97;5.90;;;;;;;29.80;100.00;101031.94;5006317;28;20233;-75
2021/07/29 06:49:31;;;;;;;13.70;5.80;;;;;;;29.85;100.00;101039.38;5010714;28;20238;-74
2021/07/29 06:51:56;;;;;;;11.07;5.63;;;;;;;29.78;100.00;101035.94;5011332;28;20188;-75
2021/07/29 06:54:22;;;;;;;12.20;5.70;;;;;;;29.79;100.00;101037.59;5010975;28;20385;-75
2021/07/29 06:56:47;;;;;;;15.87;5.67;;;;;;;29.82;100.00;101034.44;5001718;28;20186;-76
2021/07/29 06:59:13;;;;;;;12.23;5.60;;;;;;;29.97;100.00;101032.19;5011151;28;20174;-76
2021/07/29 07:01:38;;;;;;;10.47;6.27;;;;;;;30.11;100.00;101039.19;5011218;28;20487;-75
2021/07/29 07:04:04;;;;;;;14.37;5.47;;;;;;;30.16;100.00;101041.22;5006792;28;20640;-75
2021/07/29 07:06:32;;;;;;;14.00;6.30;;;;;;;30.24;100.00;101038.22;5006782;28;20769;-74
2021/07/29 07:08:58;;;;;;;7.70;5.30;;;;;;;30.26;100.00;101049.66;5015974;28;20171;-80
2021/07/29 07:11:23;;;;;;;8.20;5.43;;;;;;;30.19;100.00;101048.91;5010341;28;20459;-77
2021/07/29 07:13:48;;;;;;;18.60;6.73;;;;;;;30.33;100.00;101042.28;5007420;28;20516;-75
2021/07/29 07:16:14;;;;;;;9.57;5.73;;;;;;;30.39;100.00;101046.00;5008002;28;20197;-73
2021/07/29 07:18:41;;;;;;;9.10;5.50;;;;;;;30.54;100.00;101046.44;5006522;28;20254;-72
2021/07/29 07:21:08;;;;;;;12.00;5.80;;;;;;;30.61;100.00;101047.19;5010731;28;20452;-75
2021/07/29 07:23:35;;;;;;;11.27;6.17;;;;;;;30.64;100.00;101041.31;5010034;28;20408;-76
2021/07/29 07:26:01;;;;;;;13.43;5.63;;;;;;;30.70;100.00;101049.63;5010754;28;20825;-77
2021/07/29 07:28:27;;;;;;;12.60;7.00;;;;;;;30.62;100.00;101048.03;4996688;28;20429;-75
2021/07/29 07:30:53;;;;;;;11.40;5.87;;;;;;;30.68;100.00;101049.84;5010538;28;20402;-76
2021/07/29 07:33:18;;;;;;;16.30;6.40;;;;;;;30.65;100.00;101053.81;5008688;28;20209;-76
2021/07/29 07:35:44;;;;;;;11.97;6.20;;;;;;;30.58;100.00;101058.47;5010256;28;20397;-76
2021/07/29 07:38:09;;;;;;;13.33;7.50;;;;;;;30.54;100.00;101057.28;5009687;28;20584;-76
2021/07/29 07:40:37;;;;;;;24.27;7.97;;;;;;;30.56;100.00;101055.19;5010658;28;20614;-80
2021/07/29 07:43:03;;;;;;;10.13;6.03;;;;;;;30.56;100.00;101062.50;5010894;28;20187;-75
2021/07/29 07:45:37;;;;;;;18.50;6.87;;;;;;;30.47;100.00;101061.97;5013852;28;20409;-79
2021/07/29 07:48:09;;;;;;;11.57;6.20;;;;;;;30.48;100.00;101055.47;5013426;28;20467;-80
2021/07/29 07:50:41;;;;;;;8.13;5.67;;;;;;;30.42;100.00;101058.25;5011784;28;20409;-75
2021/07/29 07:53:06;;;;;;;10.20;6.13;;;;;;;30.50;100.00;101056.06;5011349;28;20409;-77
2021/07/29 07:55:34;;;;;;;11.80;5.70;;;;;;;30.48;100.00;101047.34;5012604;28;20416;-83
2021/07/29 07:57:59;;;;;;;10.63;6.57;;;;;;;30.41;100.00;101057.44;5010768;28;20193;-75
2021/07/29 08:00:25;;;;;;;10.47;6.97;;;;;;;30.54;100.00;101051.03;5009886;28;20453;-75
2021/07/29 08:02:50;;;;;;;11.77;5.90;;;;;;;30.57;100.00;101045.97;5009193;28;20640;-74
2021/07/29 08:05:16;;;;;;;11.57;6.80;;;;;;;30.64;100.00;101057.59;5010652;28;20162;-77
2021/07/29 08:07:41;;;;;;;12.13;6.60;;;;;;;30.59;100.00;101054.72;5010544;28;20695;-73
2021/07/29 08:10:07;;;;;;;11.03;5.87;;;;;;;30.56;100.00;101057.06;5001929;28;20178;-75
2021/07/29 08:12:33;;;;;;;19.07;7.10;;;;;;;30.46;100.00;101060.31;5004898;28;20236;-76
2021/07/29 08:14:58;;;;;;;9.37;7.53;;;;;;;30.44;100.00;101059.69;5008554;28;20786;-74
2021/07/29 08:17:23;;;;;;;8.93;6.10;;;;;;;30.49;100.00;101059.84;5007691;28;20185;-76
2021/07/29 08:19:49;;;;;;;9.63;6.23;;;;;;;30.56;100.00;101060.59;5009796;28;20166;-73
2021/07/29 08:22:15;;;;;;;12.50;5.90;;;;;;;30.50;100.00;101068.81;5010551;28;20206;-75
2021/07/29 08:24:41;;;;;;;10.67;6.43;;;;;;;30.48;100.00;101068.22;5009309;28;20174;-75
2021/07/29 08:27:06;;;;;;;12.50;6.03;;;;;;;30.32;100.00;101069.66;5009991;28;20523;-76
2021/07/29 08:29:32;;;;;;;18.50;6.97;;;;;;;30.48;100.00;101068.22;5009344;28;20663;-76
2021/07/29 08:31:58;;;;;;;8.93;6.43;;;;;;;30.44;100.00;101067.81;5009390;28;20182;-76
2021/07/29 08:34:24;;;;;;;10.50;6.30;;;;;;;30.48;100.00;101069.03;5010360;28;20186;-74
2021/07/29 08:36:50;;;;;;;9.80;5.67;;;;;;;30.61;100.00;101068.91;5013152;28;20874;-76
2021/07/29 08:39:15;;;;;;;11.30;6.30;;;;;;;30.75;100.00;101061.44;5014566;28;20170;-75
2021/07/29 08:41:41;;;;;;;9.03;5.80;;;;;;;30.77;100.00;101064.78;5013416;28;20265;-82
2021/07/29 08:44:07;;;;;;;9.97;6.37;;;;;;;30.85;100.00;101061.75;5012408;28;20170;-77
2021/07/29 08:46:35;;;;;;;12.93;7.10;;;;;;;30.86;100.00;101062.56;5013642;28;20441;-76
2021/07/29 08:49:01;;;;;;;10.27;6.37;;;;;;;30.80;100.00;101066.19;5013053;28;20159;-84
2021/07/29 08:51:26;;;;;;;13.37;7.57;;;;;;;30.87;100.00;101073.19;5028895;28;20413;-76
2021/07/29 08:53:52;;;;;;;13.77;7.33;;;;;;;30.83;100.00;101071.16;5013607;28;20401;-76
2021/07/29 08:56:24;;;;;;;7.60;5.93;;;;;;;30.77;100.00;101067.50;5009699;28;20225;-76
2021/07/29 08:58:51;;;;;;;8.40;6.03;;;;;;;30.75;100.00;101077.72;5013014;28;20691;-76
2021/07/29 09:01:16;;;;;;;10.23;5.53;;;;;;;30.90;100.00;101075.44;5013750;28;20408;-77
2021/07/29 09:03:44;;;;;;;9.67;5.70;;;;;;;30.89;100.00;101073.78;5013767;28;20413;-79
2021/07/29 09:06:14;;;;;;;11.63;6.10;;;;;;;30.87;100.00;101077.78;5013444;28;20178;-77
2021/07/29 09:08:44;;;;;;;9.60;5.50;;;;;;;30.96;100.00;101071.00;5013677;28;20408;-79
2021/07/29 09:11:37;;;;;;;7.80;4.87;;;;;;;30.80;100.00;101083.31;5013190;28;20440;-78
2021/07/29 09:14:04;;;;;;;15.67;6.50;;;;;;;30.95;100.00;101080.19;4998565;28;20414;-76
2021/07/29 09:16:34;;;;;;;19.07;7.03;;;;;;;31.01;100.00;101084.72;5012540;28;20930;-75
2021/07/29 09:19:01;;;;;;;13.07;6.80;;;;;;;31.02;100.00;101086.38;5013186;28;20405;-74
2021/07/29 09:21:26;;;;;;;12.00;5.13;;;;;;;31.12;100.00;101092.06;5012377;28;20410;-78
2021/07/29 09:24:05;;;;;;;14.63;6.13;;;;;;;30.94;100.00;101084.78;5011737;28;20425;-75
2021/07/29 09:26:57;;;;;;;11.57;5.83;;;;;;;30.93;100.00;101075.00;5012843;28;20216;-85
2021/07/29 09:29:23;;;;;;;8.10;5.50;;;;;;;31.07;100.00;101083.81;4995758;28;20492;-76
2021/07/29 09:32:04;;;;;;;13.67;5.77;;;;;;;31.13;100.00;101065.75;5012097;28;20432;-76
2021/07/29 09:34:50;;;;;;;8.63;5.60;;;;;;;31.17;100.00;101075.94;5012465;28;20509;-87
2021/07/29 09:37:18;;;;;;;8.13;5.27;;;;;;;31.20;100.00;101072.72;5012139;28;20457;-75
2021/07/29 09:39:44;;;;;;;11.27;5.87;;;;;;;31.27;100.00;101072.69;5008870;28;20499;-76
2021/07/29 09:42:18;;;;;;;12.83;5.97;;;;;;;31.39;100.00;101078.16;5012444;28;20416;-75
2021/07/29 09:44:47;;;;;;;9.50;6.30;;;;;;;31.44;100.00;101070.16;5012570;28;20617;-83
2021/07/29 09:47:13;;;;;;;15.27;6.00;;;;;;;31.56;100.00;101068.28;5008687;28;21018;-75
2021/07/29 09:49:41;;;;;;;11.03;5.77;;;;;;;31.48;100.00;101069.44;5012724;28;20425;-75
2021/07/29 09:52:07;;;;;;;8.23;5.07;;;;;;;31.44;100.00;101068.25;5012298;28;20176;-74
2021/07/29 09:54:37;;;;;;;10.13;4.87;;;;;;;31.56;100.00;101062.00;5013519;28;20409;-76
2021/07/29 09:57:02;;;;;;;7.73;5.03;;;;;;;31.64;100.00;101067.94;5012657;28;20405;-83
2021/07/29 09:59:28;;;;;;;7.80;4.93;;;;;;;31.68;100.00;101060.16;5011311;28;20397;-76
2021/07/29 10:01:55;;;;;;;26.43;5.20;;;;;;;31.65;100.00;101060.59;5011551;28;20182;-75
2021/07/29 10:04:27;;;;;;;9.30;4.40;;;;;;;31.72;100.00;101062.16;5010106;28;20871;-74
2021/07/29 10:06:56;;;;;;;9.10;4.27;;;;;;;31.72;100.00;101062.16;5011837;28;20455;-87
2021/07/29 10:09:22;;;;;;;8.90;4.80;;;;;;;31.79;100.00;101067.50;5007189;28;20812;-75
2021/07/29 10:11:51;;;;;;;11.00;4.87;;;;;;;31.86;100.00;101061.97;5011800;28;20879;-75
2021/07/29 10:14:45;;;;;;;13.83;5.30;;;;;;;31.72;100.00;101061.31;5025721;28;20400;-76
2021/07/29 10:17:11;;;;;;;11.53;5.10;;;;;;;31.81;100.00;101064.56;5011973;28;20911;-76
2021/07/29 10:20:11;;;;;;;7.87;4.60;;;;;;;31.98;100.00;101058.19;5012990;28;20425;-75
2021/07/29 10:22:37;;;;;;;7.20;5.00;;;;;;;32.06;100.00;101051.56;5014994;28;20185;-87
2021/07/29 10:25:03;;;;;;;9.30;4.70;;;;;;;32.34;100.00;101041.88;5015937;28;20406;-84
2021/07/29 10:27:29;;;;;;;10.30;5.40;;;;;;;32.56;100.00;101032.00;5013224;28;20484;-82
2021/07/29 10:30:29;;;;;;;7.60;4.87;;;;;;;33.06;100.00;101023.22;5015136;28;20418;-82
2021/07/29 10:32:57;;;;;;;9.13;5.90;;;;;;;33.39;100.00;101028.72;5024710;28;20194;-92
2021/07/29 10:35:25;;;;;;;18.90;7.00;;;;;;;33.78;100.00;101022.50;5011707;28;20464;-82
2021/07/29 10:37:53;;;;;;;21.07;6.90;;;;;;;33.97;100.00;101023.13;5011734;28;20814;-84
2021/07/29 10:40:31;;;;;;;9.33;5.50;;;;;;;33.80;100.00;101014.94;5004917;28;20441;-82
2021/07/29 10:42:57;;;;;;;12.43;5.97;;;;;;;33.56;100.00;101011.56;5011738;28;20409;-81
2021/07/29 10:45:52;;;;;;;10.70;6.40;;;;;;;33.34;100.00;101017.72;5011983;28;20749;-81
2021/07/29 10:48:48;;;;;;;7.33;5.40;;;;;;;33.17;100.00;101002.41;5011133;28;20170;-85
2021/07/29 10:51:19;;;;;;;11.67;5.67;;;;;;;32.91;100.00;101001.97;5002720;28;20496;-81
2021/07/29 10:53:46;;;;;;;8.53;5.20;;;;;;;32.78;100.00;101007.66;5012274;28;20402;-82
2021/07/29 10:56:14;;;;;;;7.87;4.83;;;;;;;32.73;100.00;101011.13;5009472;28;20460;-85
2021/07/29 10:58:41;;;;;;;11.20;5.60;;;;;;;32.57;100.00;101020.91;5010553;28;20410;-84
2021/07/29 11:01:08;;;;;;;11.70;5.10;;;;;;;32.66;100.00;101025.94;5011736;28;20446;-85
2021/07/29 11:03:34;;;;;;;7.60;5.20;;;;;;;32.73;100.00;101019.31;5011858;28;20895;-84
2021/07/29 11:06:06;;;;;;;11.63;5.07;;;;;;;32.73;100.00;101029.38;5012547;28;20424;-83
2021/07/29 11:08:32;;;;;;;6.80;5.37;;;;;;;32.96;100.00;101028.47;5010405;28;20178;-82
2021/07/29 11:11:02;;;;;;;12.33;5.00;;;;;;;33.31;100.00;101023.66;5010697;28;20421;-84
2021/07/29 11:13:29;;;;;;;8.53;5.10;;;;;;;33.30;100.00;101018.44;5010617;28;20402;-72